Time;durP1;ratioP1;P1;durP2;ratioP2;P2;SDS_P1;SDS_P2;PMS_P1;PMS_P2;Temp;Humidity;BMP_temperature;BMP_pressure;BME280_temperature;BME280_humidity;BME280_pressure;Samples;Min_cycle;Max_cycle;Signal;HPM_P1;HPM_P2
2023/01/01 00:01:42;;;;;;;26.05;12.30;;;13.40;99.90;;;;;;5129093;27;20043;-43
2023/01/01 00:04:14;;;;;;;29.80;13.80;;;13.10;99.90;;;;;;5147594;27;20031;-44
2023/01/01 00:06:41;;;;;;;22.45;12.80;;;13.00;99.90;;;;;;5146047;27;20038;-45
2023/01/01 00:11:50;;;;;;;27.20;13.82;;;12.90;99.90;;;;;;5127297;27;20602;-45
2023/01/01 00:14:16;;;;;;;36.40;17.10;;;12.70;99.90;;;;;;5131148;27;20125;-50
2023/01/01 00:16:42;;;;;;;35.30;16.48;;;12.60;99.90;;;;;;5147749;27;20031;-48
2023/01/01 00:19:07;;;;;;;37.78;19.58;;;12.50;99.90;;;;;;5147871;27;20470;-44
2023/01/01 00:21:33;;;;;;;39.50;17.13;;;12.30;99.90;;;;;;5145937;27;20031;-47
2023/01/01 00:23:59;;;;;;;31.13;17.30;;;12.30;99.90;;;;;;5147055;27;20050;-46
2023/01/01 00:26:24;;;;;;;33.88;20.45;;;12.30;99.90;;;;;;5146715;27;20077;-44
2023/01/01 00:28:50;;;;;;;34.70;18.90;;;12.30;99.90;;;;;;5146566;27;20111;-45
2023/01/01 00:31:18;;;;;;;40.38;20.08;;;12.20;99.90;;;;;;5147519;27;20253;-46
2023/01/01 00:33:54;;;;;;;41.65;22.52;;;12.30;99.90;;;;;;5147106;27;20466;-47
2023/01/01 00:36:21;;;;;;;45.55;24.15;;;12.30;99.90;;;;;;5145514;27;20509;-45
2023/01/01 00:38:47;;;;;;;37.03;21.35;;;12.30;99.90;;;;;;5146544;27;20043;-45
2023/01/01 00:41:14;;;;;;;43.00;21.65;;;12.30;99.90;;;;;;5146708;27;20086;-45
2023/01/01 00:43:40;;;;;;;42.90;21.42;;;12.40;99.90;;;;;;5147132;27;20035;-46
2023/01/01 00:46:07;;;;;;;43.53;23.10;;;12.50;99.90;;;;;;5146369;27;20265;-45
2023/01/01 00:48:33;;;;;;;38.92;20.08;;;12.60;99.90;;;;;;5147118;27;20078;-45
2023/01/01 00:50:59;;;;;;;42.55;23.02;;;12.70;99.90;;;;;;5145803;27;20054;-45
2023/01/01 00:53:25;;;;;;;34.10;19.73;;;12.70;99.90;;;;;;5146203;27;20535;-46
2023/01/01 00:55:52;;;;;;;36.20;19.25;;;12.70;99.90;;;;;;5146543;27;20142;-45
2023/01/01 00:58:18;;;;;;;32.70;15.55;;;12.90;99.90;;;;;;5147172;27;20113;-42
2023/01/01 01:00:45;;;;;;;31.58;17.27;;;13.00;99.90;;;;;;5144765;27;20043;-44
2023/01/01 01:03:26;;;;;;;33.45;18.08;;;13.00;99.90;;;;;;5146878;27;20584;-44
2023/01/01 01:05:57;;;;;;;23.45;12.73;;;13.20;99.90;;;;;;5145639;27;20078;-46
2023/01/01 01:08:23;;;;;;;29.60;15.68;;;13.30;99.90;;;;;;5145951;27;20046;-44
2023/01/01 01:10:49;;;;;;;31.73;17.42;;;13.40;99.90;;;;;;5146270;27;20073;-45
2023/01/01 01:13:14;;;;;;;28.42;14.68;;;13.50;99.90;;;;;;5146680;27;20047;-44
2023/01/01 01:15:40;;;;;;;36.75;18.08;;;13.50;99.90;;;;;;5145784;27;20070;-43
2023/01/01 01:18:05;;;;;;;26.95;14.02;;;13.50;99.90;;;;;;5146621;27;20049;-47
2023/01/01 01:20:31;;;;;;;35.33;19.98;;;13.60;99.90;;;;;;5126453;27;20069;-44
2023/01/01 01:22:56;;;;;;;28.83;18.90;;;13.60;99.90;;;;;;5145327;27;20027;-44
2023/01/01 01:25:22;;;;;;;27.88;16.33;;;13.60;99.90;;;;;;5144328;27;20086;-44
2023/01/01 01:27:47;;;;;;;38.85;20.08;;;13.50;99.90;;;;;;5146802;27;20158;-46
2023/01/01 01:30:13;;;;;;;37.22;21.05;;;13.50;99.90;;;;;;5145759;27;20662;-44
2023/01/01 01:32:39;;;;;;;37.58;21.33;;;13.50;99.90;;;;;;5145959;27;20063;-44
2023/01/01 01:35:05;;;;;;;28.45;17.17;;;13.40;99.90;;;;;;5144976;27;20046;-42
2023/01/01 01:37:30;;;;;;;45.47;22.73;;;13.40;99.90;;;;;;5144870;27;20038;-47
2023/01/01 01:39:56;;;;;;;38.75;24.63;;;13.20;99.90;;;;;;5145626;27;20510;-46
2023/01/01 01:42:21;;;;;;;42.50;20.40;;;13.20;99.90;;;;;;5127385;27;20644;-46
2023/01/01 01:44:59;;;;;;;43.00;26.35;;;12.90;99.90;;;;;;5144886;27;20121;-44
2023/01/01 01:47:41;;;;;;;43.60;24.90;;;12.70;99.90;;;;;;5145777;27;20680;-45
2023/01/01 01:50:20;;;;;;;48.90;28.42;;;12.60;99.90;;;;;;5143899;27;20082;-45
2023/01/01 01:53:09;;;;;;;43.85;29.58;;;12.40;99.90;;;;;;5144412;27;20050;-45
2023/01/01 01:55:39;;;;;;;46.63;28.60;;;12.30;99.90;;;;;;5144614;27;20253;-48
2023/01/01 01:58:08;;;;;;;47.42;30.23;;;12.20;99.90;;;;;;5110357;27;20042;-48
2023/01/01 02:00:33;;;;;;;46.58;25.83;;;12.10;99.90;;;;;;5144575;27;20417;-43
2023/01/01 02:03:07;;;;;;;42.78;23.00;;;12.00;99.90;;;;;;5145634;27;20039;-49
2023/01/01 02:05:34;;;;;;;54.25;26.08;;;12.10;99.90;;;;;;5142903;27;20030;-46
2023/01/01 02:08:02;;;;;;;45.00;23.83;;;12.10;99.90;;;;;;5125763;27;20098;-43
2023/01/01 02:10:28;;;;;;;31.80;18.15;;;12.10;99.90;;;;;;5126299;27;20116;-45
2023/01/01 02:12:54;;;;;;;33.13;19.58;;;12.10;99.90;;;;;;5146061;27;20074;-48
2023/01/01 02:15:24;;;;;;;48.90;27.85;;;12.20;99.90;;;;;;5143416;27;20039;-45
2023/01/01 02:18:00;;;;;;;41.38;27.67;;;12.20;99.90;;;;;;5145048;27;20034;-46
2023/01/01 02:20:49;;;;;;;36.38;21.05;;;12.30;99.90;;;;;;5143822;27;20553;-44
2023/01/01 02:23:26;;;;;;;44.58;24.83;;;12.30;99.90;;;;;;5125863;27;20031;-45
2023/01/01 02:26:14;;;;;;;46.00;22.95;;;12.40;99.90;;;;;;5144251;27;20083;-47
2023/01/01 02:29:03;;;;;;;40.00;23.52;;;12.40;99.90;;;;;;5124931;27;20133;-44
2023/01/01 02:31:34;;;;;;;41.15;19.75;;;12.50;99.90;;;;;;5124172;27;20047;-44
2023/01/01 02:34:03;;;;;;;40.60;21.63;;;12.50;99.90;;;;;;5123708;27;20054;-43
2023/01/01 02:36:32;;;;;;;40.95;22.02;;;12.60;99.90;;;;;;5135925;27;20042;-42
2023/01/01 02:39:00;;;;;;;37.17;20.48;;;12.60;99.90;;;;;;5145003;27;20821;-43
2023/01/01 02:41:38;;;;;;;35.42;18.63;;;12.70;99.90;;;;;;5125078;27;20031;-44
2023/01/01 02:44:04;;;;;;;33.38;17.23;;;12.90;99.90;;;;;;5143927;27;20078;-45
2023/01/01 02:46:32;;;;;;;36.53;19.27;;;13.00;99.90;;;;;;5145201;27;20066;-45
2023/01/01 02:48:57;;;;;;;34.63;18.42;;;13.00;99.90;;;;;;5144698;27;20125;-45
2023/01/01 02:51:51;;;;;;;28.00;16.23;;;13.00;99.90;;;;;;5142929;27;20049;-44
2023/01/01 02:54:16;;;;;;;28.13;13.85;;;13.00;99.90;;;;;;5145143;27;20042;-44
2023/01/01 02:57:07;;;;;;;28.48;14.68;;;13.00;99.90;;;;;;5144378;27;20407;-44
2023/01/01 03:02:55;;;;;;;31.65;14.45;;;13.10;99.90;;;;;;5144913;27;20045;-44
2023/01/01 03:06:24;;;;;;;37.13;12.82;;;13.10;99.90;;;;;;5148153;27;20087;-45
2023/01/01 03:09:10;;;;;;;21.48;11.95;;;13.30;99.90;;;;;;5092872;27;20134;-46
2023/01/01 03:11:56;;;;;;;19.33;9.07;;;13.40;99.90;;;;;;5148274;27;20555;-43
2023/01/01 03:14:49;;;;;;;20.40;9.52;;;13.50;99.90;;;;;;5148182;27;20436;-46
2023/01/01 03:17:32;;;;;;;24.13;10.55;;;13.50;99.90;;;;;;5092286;27;20107;-46
2023/01/01 03:20:00;;;;;;;22.27;9.23;;;13.50;99.90;;;;;;5147338;27;20393;-44
2023/01/01 03:22:32;;;;;;;21.42;7.70;;;13.60;99.90;;;;;;5129054;27;20045;-47
2023/01/01 03:25:20;;;;;;;23.42;8.18;;;13.60;99.90;;;;;;5148197;27;20043;-44
2023/01/01 03:27:49;;;;;;;20.95;8.32;;;13.60;99.90;;;;;;5147883;27;20462;-44
2023/01/01 03:30:18;;;;;;;18.52;7.45;;;13.80;99.90;;;;;;5147752;27;20074;-44
2023/01/01 03:33:04;;;;;;;20.23;6.80;;;13.70;99.90;;;;;;5148543;27;20043;-44
2023/01/01 03:35:39;;;;;;;17.70;5.28;;;13.80;99.90;;;;;;5147588;27;20066;-48
2023/01/01 03:38:11;;;;;;;16.42;5.97;;;13.80;99.90;;;;;;5147610;27;20607;-49
2023/01/01 03:40:38;;;;;;;12.75;5.90;;;13.90;99.90;;;;;;5129291;27;20535;-43
2023/01/01 03:43:29;;;;;;;12.20;4.72;;;13.80;99.90;;;;;;5130083;27;20043;-44
2023/01/01 03:45:56;;;;;;;15.73;4.40;;;13.50;99.90;;;;;;5147484;27;20050;-43
2023/01/01 03:48:21;;;;;;;11.00;4.22;;;13.50;99.90;;;;;;5148222;27;20035;-45
2023/01/01 03:51:16;;;;;;;15.13;5.20;;;13.40;99.90;;;;;;5147350;27;20046;-45
2023/01/01 03:53:43;;;;;;;15.88;4.78;;;13.10;99.90;;;;;;5148295;27;20537;-43
2023/01/01 03:56:26;;;;;;;18.05;5.78;;;12.70;99.90;;;;;;5147271;27;20050;-45
2023/01/01 03:58:59;;;;;;;10.60;5.00;;;12.30;99.90;;;;;;5148021;27;20069;-47
2023/01/01 04:01:31;;;;;;;27.42;5.03;;;12.00;99.90;;;;;;5127645;27;20051;-44
2023/01/01 04:03:58;;;;;;;18.02;5.38;;;11.90;99.90;;;;;;5108902;27;20046;-46
2023/01/01 04:06:24;;;;;;;24.08;8.15;;;11.80;99.90;;;;;;5145947;27;20125;-46
2023/01/01 04:08:54;;;;;;;20.33;5.97;;;11.70;99.90;;;;;;5147392;27;20126;-47
2023/01/01 04:14:08;;;;;;;19.35;8.20;;;11.60;99.90;;;;;;5146163;27;20054;-44
2023/01/01 04:16:33;;;;;;;25.17;6.45;;;11.60;99.90;;;;;;5147855;27;20502;-45
2023/01/01 04:18:59;;;;;;;10.68;3.58;;;11.50;99.90;;;;;;5147736;27;20038;-48
2023/01/01 04:21:24;;;;;;;17.45;4.97;;;11.50;99.90;;;;;;5147449;27;20038;-45
2023/01/01 04:23:50;;;;;;;17.30;5.80;;;11.40;99.90;;;;;;5145836;27;20065;-43
2023/01/01 04:26:15;;;;;;;9.18;4.13;;;11.40;99.90;;;;;;5146755;27;20042;-46
2023/01/01 04:28:42;;;;;;;22.45;7.07;;;11.40;99.90;;;;;;5128148;27;20046;-44
2023/01/01 04:31:09;;;;;;;19.02;6.80;;;11.40;99.90;;;;;;5128406;27;20546;-45
2023/01/01 04:33:34;;;;;;;22.83;6.05;;;11.30;99.90;;;;;;5128831;27;20023;-46
2023/01/01 04:36:08;;;;;;;22.20;6.38;;;11.30;99.90;;;;;;5146552;27;20034;-45
2023/01/01 04:38:34;;;;;;;19.50;7.00;;;11.30;99.90;;;;;;5145670;27;20295;-45
2023/01/01 04:41:01;;;;;;;19.13;5.10;;;11.30;99.90;;;;;;5146446;27;20153;-44
2023/01/01 04:43:29;;;;;;;19.70;6.28;;;11.40;99.90;;;;;;5146152;27;20026;-44
2023/01/01 04:46:00;;;;;;;20.45;7.30;;;11.40;99.90;;;;;;5146040;27;20045;-43
2023/01/01 04:48:26;;;;;;;18.70;5.47;;;11.30;99.90;;;;;;5145830;27;20098;-45
2023/01/01 04:50:57;;;;;;;22.00;7.13;;;11.20;99.90;;;;;;5146502;27;20061;-44
2023/01/01 04:53:23;;;;;;;22.15;6.35;;;11.20;99.90;;;;;;5146413;27;20058;-49
2023/01/01 04:55:48;;;;;;;21.98;6.25;;;11.20;99.90;;;;;;5145989;27;20537;-45
2023/01/01 04:58:14;;;;;;;19.85;5.78;;;11.20;99.90;;;;;;5146556;27;20077;-47
2023/01/01 05:00:39;;;;;;;13.65;3.95;;;11.20;99.90;;;;;;5145930;27;20030;-43
2023/01/01 05:03:05;;;;;;;17.25;5.95;;;11.20;99.90;;;;;;5147094;27;20083;-46
2023/01/01 05:05:30;;;;;;;14.48;4.38;;;11.30;99.90;;;;;;5145288;27;20041;-48
2023/01/01 05:07:56;;;;;;;8.25;2.67;;;11.40;99.90;;;;;;5145628;27;20371;-44
2023/01/01 05:10:21;;;;;;;12.55;4.10;;;11.50;99.90;;;;;;5144984;27;20110;-48
2023/01/01 05:12:47;;;;;;;13.70;4.53;;;11.60;99.90;;;;;;5145667;27;20042;-43
2023/01/01 05:15:13;;;;;;;11.48;3.53;;;11.60;99.90;;;;;;5145705;27;20440;-46
2023/01/01 05:17:38;;;;;;;8.75;2.88;;;11.70;99.90;;;;;;5146592;27;20053;-46
2023/01/01 05:20:04;;;;;;;15.00;3.58;;;11.70;99.90;;;;;;5146222;27;20034;-45
2023/01/01 05:22:30;;;;;;;15.60;3.58;;;11.80;99.90;;;;;;5144732;27;20481;-46
2023/01/01 05:24:55;;;;;;;13.75;3.50;;;11.80;99.90;;;;;;5145729;27;20401;-44
2023/01/01 05:27:21;;;;;;;11.27;2.83;;;11.90;99.90;;;;;;5145897;27;20620;-46
2023/01/01 05:29:46;;;;;;;15.13;3.65;;;12.00;99.90;;;;;;5126095;27;20044;-45
2023/01/01 05:32:12;;;;;;;15.48;3.65;;;12.00;99.90;;;;;;5127932;27;20361;-44
2023/01/01 05:34:37;;;;;;;11.55;3.28;;;12.10;99.90;;;;;;5145574;27;20042;-44
2023/01/01 05:37:03;;;;;;;14.73;3.40;;;12.20;99.90;;;;;;5144674;27;20046;-42
2023/01/01 05:39:28;;;;;;;7.55;2.20;;;12.30;99.90;;;;;;5127295;27;20918;-45
2023/01/01 05:41:54;;;;;;;12.05;2.80;;;12.40;99.90;;;;;;5145770;27;20401;-42
2023/01/01 05:44:19;;;;;;;16.42;3.25;;;12.40;99.90;;;;;;5144371;27;20050;-44
2023/01/01 05:46:45;;;;;;;12.07;3.88;;;12.40;99.90;;;;;;5145972;27;20045;-43
2023/01/01 05:49:11;;;;;;;10.23;2.60;;;12.50;99.90;;;;;;5127296;27;20231;-45
2023/01/01 05:51:37;;;;;;;12.35;3.10;;;12.50;99.90;;;;;;5126606;27;20481;-45
2023/01/01 05:54:02;;;;;;;4.97;1.52;;;12.50;99.90;;;;;;5144689;27;20089;-44
2023/01/01 05:56:28;;;;;;;9.73;2.30;;;12.60;99.90;;;;;;5144628;27;20123;-43
2023/01/01 05:58:55;;;;;;;5.85;1.70;;;12.60;99.90;;;;;;5145064;27;20039;-47
2023/01/01 06:01:26;;;;;;;9.48;2.40;;;12.60;99.90;;;;;;5145263;27;20122;-45
2023/01/01 06:03:53;;;;;;;10.63;2.60;;;12.60;99.90;;;;;;5145751;27;20042;-56
2023/01/01 06:06:21;;;;;;;5.95;2.08;;;12.60;99.90;;;;;;5143955;27;20039;-46
2023/01/01 06:08:59;;;;;;;9.52;2.80;;;12.70;99.90;;;;;;5145533;27;20102;-44
2023/01/01 06:11:25;;;;;;;10.52;2.22;;;12.70;99.90;;;;;;5144644;27;20042;-44
2023/01/01 06:13:52;;;;;;;12.15;2.75;;;12.70;99.90;;;;;;5145537;27;20058;-46
2023/01/01 06:16:18;;;;;;;7.68;1.77;;;12.60;99.90;;;;;;5144982;27;20049;-46
2023/01/01 06:18:44;;;;;;;8.23;1.70;;;12.60;99.90;;;;;;5146323;27;20515;-43
2023/01/01 06:21:12;;;;;;;19.42;2.15;;;12.60;99.90;;;;;;5146124;27;20099;-45
2023/01/01 06:23:39;;;;;;;7.63;1.70;;;12.60;99.90;;;;;;5145747;27;20098;-46
2023/01/01 06:26:15;;;;;;;6.45;1.38;;;12.60;99.90;;;;;;5119726;27;20046;-44
2023/01/01 06:28:41;;;;;;;8.52;1.80;;;12.60;99.90;;;;;;5145002;27;20038;-44
2023/01/01 06:31:08;;;;;;;6.00;1.40;;;12.60;99.90;;;;;;5144840;27;20133;-48
2023/01/01 06:33:35;;;;;;;8.52;1.90;;;12.60;99.90;;;;;;5145616;27;20049;-44
2023/01/01 06:36:03;;;;;;;10.02;2.03;;;12.70;99.90;;;;;;5124653;27;20035;-45
2023/01/01 06:38:33;;;;;;;6.38;1.67;;;12.60;99.90;;;;;;5144228;27;20442;-45
2023/01/01 06:41:01;;;;;;;7.88;1.50;;;12.60;99.90;;;;;;5143690;27;20675;-44
2023/01/01 06:43:29;;;;;;;13.98;1.60;;;12.60;99.90;;;;;;5144761;27;20031;-42
2023/01/01 06:46:19;;;;;;;7.75;1.20;;;12.50;99.90;;;;;;5125421;27;20042;-44
2023/01/01 06:48:46;;;;;;;13.95;2.38;;;12.50;99.90;;;;;;5144031;27;20038;-46
2023/01/01 06:51:18;;;;;;;8.77;2.08;;;12.50;99.90;;;;;;5144744;27;20093;-44
2023/01/01 06:53:44;;;;;;;8.10;1.33;;;12.50;99.90;;;;;;5115925;28;20427;-48
2023/01/01 06:56:10;;;;;;;8.43;1.70;;;12.50;99.90;;;;;;5138324;27;20047;-46
2023/01/01 06:58:35;;;;;;;9.90;1.70;;;12.40;99.90;;;;;;5144616;27;20525;-46
2023/01/01 07:01:14;;;;;;;7.10;1.27;;;12.40;99.90;;;;;;5125705;27;20458;-48
2023/01/01 07:03:41;;;;;;;5.65;1.33;;;12.40;99.90;;;;;;5144270;27;20043;-44
2023/01/01 07:06:07;;;;;;;8.52;1.73;;;12.30;99.90;;;;;;5144112;27;20042;-45
2023/01/01 07:08:33;;;;;;;7.55;2.03;;;12.30;99.90;;;;;;5143930;27;20685;-46
2023/01/01 07:10:59;;;;;;;12.48;1.70;;;12.20;99.90;;;;;;5144203;27;20053;-45
2023/01/01 07:13:26;;;;;;;12.50;1.85;;;12.30;99.90;;;;;;5144351;27;20480;-49
2023/01/01 07:15:51;;;;;;;9.30;1.90;;;12.30;99.90;;;;;;5143968;27;20431;-48
2023/01/01 07:18:21;;;;;;;10.10;1.80;;;12.30;99.90;;;;;;5144740;27;20090;-44
2023/01/01 07:20:55;;;;;;;10.35;2.50;;;12.20;99.90;;;;;;5143715;27;20035;-44
2023/01/01 07:23:21;;;;;;;10.73;1.50;;;12.20;99.90;;;;;;5123781;28;20235;-44
2023/01/01 07:25:51;;;;;;;13.60;2.30;;;12.20;99.90;;;;;;5134324;27;20041;-43
2023/01/01 07:28:17;;;;;;;11.90;1.67;;;12.20;99.90;;;;;;5143713;27;20070;-44
2023/01/01 07:30:42;;;;;;;9.82;2.20;;;12.20;99.90;;;;;;5143997;27;20070;-46
2023/01/01 07:33:13;;;;;;;7.10;1.75;;;12.20;99.90;;;;;;5144818;27;20045;-44
2023/01/01 07:35:39;;;;;;;10.57;2.00;;;12.20;99.90;;;;;;5144092;27;20107;-45
2023/01/01 07:38:05;;;;;;;11.20;2.05;;;12.10;99.90;;;;;;5142873;27;20066;-46
2023/01/01 07:40:31;;;;;;;12.27;2.75;;;12.10;99.90;;;;;;5144019;27;20469;-46
2023/01/01 07:42:57;;;;;;;15.35;2.20;;;12.10;99.90;;;;;;5143674;27;20068;-44
2023/01/01 07:45:23;;;;;;;15.23;2.20;;;12.20;99.90;;;;;;5144107;27;20045;-45
2023/01/01 07:47:52;;;;;;;11.18;1.90;;;12.10;99.90;;;;;;5145019;27;20102;-45
2023/01/01 07:50:19;;;;;;;11.10;2.00;;;12.10;99.90;;;;;;5146941;27;20420;-46
2023/01/01 07:52:44;;;;;;;15.82;2.50;;;12.10;99.90;;;;;;5147116;27;20059;-46
2023/01/01 07:55:14;;;;;;;16.33;2.80;;;12.00;99.90;;;;;;5146527;27;20458;-45
2023/01/01 07:57:41;;;;;;;11.68;2.50;;;12.00;99.90;;;;;;5129258;27;20061;-42
2023/01/01 08:00:07;;;;;;;16.55;2.55;;;12.00;99.90;;;;;;5128451;27;20038;-45
2023/01/01 08:02:33;;;;;;;12.75;2.83;;;12.00;99.90;;;;;;5148021;27;20034;-43
2023/01/01 08:04:58;;;;;;;18.40;3.22;;;12.00;99.90;;;;;;5147614;27;20050;-48
2023/01/01 08:07:24;;;;;;;12.57;2.92;;;11.90;99.90;;;;;;5145892;27;20041;-42
2023/01/01 08:09:49;;;;;;;12.30;2.22;;;11.90;99.90;;;;;;5147387;27;20066;-44
2023/01/01 08:12:15;;;;;;;15.55;2.80;;;11.90;99.90;;;;;;5147990;27;20034;-45
2023/01/01 08:14:40;;;;;;;16.52;2.95;;;11.90;99.90;;;;;;5146346;27;20034;-47
2023/01/01 08:17:06;;;;;;;12.05;1.85;;;11.90;99.90;;;;;;5148157;27;20102;-43
2023/01/01 08:19:31;;;;;;;9.38;2.30;;;11.90;99.90;;;;;;5147924;27;20097;-43
2023/01/01 08:21:57;;;;;;;15.52;2.03;;;11.90;99.90;;;;;;5146336;27;20118;-44
2023/01/01 08:24:23;;;;;;;21.90;3.65;;;11.90;99.90;;;;;;5147202;27;20031;-44
2023/01/01 08:26:51;;;;;;;24.48;2.35;;;11.90;99.90;;;;;;5147257;27;20398;-43
2023/01/01 08:29:18;;;;;;;19.90;2.92;;;11.90;99.90;;;;;;5146811;27;20062;-44
2023/01/01 08:31:44;;;;;;;11.40;2.25;;;11.90;99.90;;;;;;5147728;27;20039;-45
2023/01/01 08:34:09;;;;;;;12.45;2.70;;;11.80;99.90;;;;;;5147224;27;20083;-44
2023/01/01 08:36:35;;;;;;;13.95;2.10;;;11.80;99.90;;;;;;5147783;27;20068;-45
2023/01/01 08:39:01;;;;;;;14.45;2.45;;;11.80;99.90;;;;;;5128943;27;20046;-44
2023/01/01 08:41:27;;;;;;;13.38;2.03;;;11.80;99.90;;;;;;5147093;27;20031;-46
2023/01/01 08:43:52;;;;;;;14.45;2.67;;;11.80;99.90;;;;;;5146530;27;20035;-42
2023/01/01 08:46:18;;;;;;;16.35;2.60;;;11.80;99.90;;;;;;5146294;27;20035;-45
2023/01/01 08:48:43;;;;;;;25.27;3.08;;;11.80;99.90;;;;;;5145951;27;20049;-44
2023/01/01 08:51:09;;;;;;;13.07;2.65;;;11.70;99.90;;;;;;5146406;27;20046;-41
2023/01/01 08:53:35;;;;;;;22.67;3.97;;;11.80;99.90;;;;;;5146432;27;20043;-45
2023/01/01 08:56:04;;;;;;;12.80;2.30;;;11.80;99.90;;;;;;5146326;27;20038;-44
2023/01/01 08:58:30;;;;;;;14.15;2.05;;;11.80;99.90;;;;;;5146839;27;20133;-42
2023/01/01 09:00:56;;;;;;;19.52;3.05;;;11.70;99.90;;;;;;5146220;27;20038;-47
2023/01/01 09:03:22;;;;;;;13.52;2.88;;;11.70;99.90;;;;;;5146908;27;20093;-42
2023/01/01 09:05:47;;;;;;;18.90;3.00;;;11.60;99.90;;;;;;5146472;27;20668;-47
2023/01/01 09:08:13;;;;;;;19.95;3.08;;;11.70;99.90;;;;;;5144948;27;20037;-44
2023/01/01 09:10:39;;;;;;;16.95;3.00;;;11.70;99.90;;;;;;5146459;27;20091;-44
2023/01/01 09:13:05;;;;;;;12.55;2.15;;;11.60;99.90;;;;;;5127554;27;20035;-45
2023/01/01 09:15:31;;;;;;;10.57;2.60;;;11.60;99.90;;;;;;5126925;27;20374;-45
2023/01/01 09:17:56;;;;;;;19.73;3.22;;;11.70;99.90;;;;;;5147046;27;20106;-44
2023/01/01 09:20:22;;;;;;;14.77;2.47;;;11.70;99.90;;;;;;5146303;27;20533;-45
2023/01/01 09:22:47;;;;;;;13.63;2.42;;;11.70;99.90;;;;;;5146862;27;20916;-46
2023/01/01 09:25:13;;;;;;;16.25;3.08;;;11.70;99.90;;;;;;5146151;27;20105;-45
2023/01/01 09:27:38;;;;;;;14.32;2.80;;;11.70;99.90;;;;;;5146850;27;20039;-47
2023/01/01 09:30:04;;;;;;;16.42;2.75;;;11.70;99.90;;;;;;5144420;27;20042;-46
2023/01/01 09:32:30;;;;;;;23.55;3.45;;;11.70;99.90;;;;;;5146409;27;20043;-43
2023/01/01 09:34:56;;;;;;;16.15;2.42;;;11.70;99.90;;;;;;5145641;27;20046;-43
2023/01/01 09:37:22;;;;;;;16.85;3.00;;;11.70;99.90;;;;;;5145351;27;20038;-42
2023/01/01 09:39:49;;;;;;;23.63;3.40;;;11.80;99.90;;;;;;5145261;27;20094;-46
2023/01/01 09:42:23;;;;;;;16.77;2.70;;;11.70;99.90;;;;;;5146885;27;20550;-45
2023/01/01 09:45:07;;;;;;;16.48;2.67;;;11.80;99.90;;;;;;5144156;27;20766;-42
2023/01/01 09:47:41;;;;;;;17.20;2.80;;;11.80;99.90;;;;;;5146096;27;20053;-43
2023/01/01 09:50:27;;;;;;;;;;;11.80;99.90;;;;;;5146111;27;20164;-45
2023/01/01 09:52:58;;;;;;;9.90;2.03;;;11.80;99.90;;;;;;5142890;27;20381;-43
2023/01/01 09:55:46;;;;;;;25.58;3.03;;;11.80;99.90;;;;;;5144755;27;20039;-43
2023/01/01 09:58:14;;;;;;;15.50;2.35;;;11.80;99.90;;;;;;5145165;27;20045;-45
2023/01/01 10:00:43;;;;;;;22.05;3.35;;;11.80;99.90;;;;;;5144948;27;20330;-44
2023/01/01 10:03:32;;;;;;;19.80;3.25;;;11.90;99.90;;;;;;5144815;27;20514;-43
2023/01/01 10:06:21;;;;;;;17.63;2.50;;;11.80;99.90;;;;;;5144740;27;20501;-43
2023/01/01 10:08:59;;;;;;;16.52;3.55;;;11.80;99.90;;;;;;5144190;27;20061;-43
2023/01/01 10:11:52;;;;;;;17.90;3.35;;;11.90;99.90;;;;;;5144881;27;20096;-44
2023/01/01 10:14:31;;;;;;;20.75;3.20;;;11.90;99.90;;;;;;5143844;27;20357;-44
2023/01/01 10:17:00;;;;;;;18.20;2.90;;;11.90;99.90;;;;;;5145752;27;20576;-44
2023/01/01 10:19:41;;;;;;;16.02;2.13;;;12.00;99.90;;;;;;5145812;27;20045;-43
2023/01/01 10:22:15;;;;;;;20.67;3.17;;;12.00;99.90;;;;;;5143869;27;20131;-44
2023/01/01 10:24:58;;;;;;;13.75;2.47;;;12.00;99.90;;;;;;5145328;27;20046;-44
2023/01/01 10:27:32;;;;;;;24.67;3.80;;;12.00;99.90;;;;;;5124987;27;20083;-43
2023/01/01 10:30:00;;;;;;;10.70;2.50;;;12.00;99.90;;;;;;5142115;27;20038;-43
2023/01/01 10:32:34;;;;;;;13.70;2.15;;;12.10;99.90;;;;;;5145677;27;20038;-42
2023/01/01 10:35:02;;;;;;;17.65;3.15;;;12.10;99.90;;;;;;5143715;27;20283;-44
2023/01/01 10:37:35;;;;;;;17.83;2.92;;;12.20;99.90;;;;;;5144207;27;20160;-43
2023/01/01 10:40:20;;;;;;;13.32;3.28;;;12.10;99.90;;;;;;5144494;27;20059;-47
2023/01/01 10:42:49;;;;;;;19.48;3.45;;;12.10;99.90;;;;;;5145007;27;20038;-42
2023/01/01 10:45:17;;;;;;;14.73;3.00;;;12.00;99.90;;;;;;5125165;27;20039;-44
2023/01/01 10:48:07;;;;;;;16.77;3.05;;;12.00;99.90;;;;;;5126693;27;20482;-44
2023/01/01 10:50:52;;;;;;;17.42;3.10;;;11.90;99.90;;;;;;5144629;27;20103;-46
2023/01/01 10:53:39;;;;;;;12.65;2.40;;;11.90;99.90;;;;;;5144409;27;20069;-45
2023/01/01 10:56:16;;;;;;;21.33;3.17;;;11.90;99.90;;;;;;5136109;27;20121;-44
2023/01/01 10:58:58;;;;;;;19.85;2.78;;;11.90;99.90;;;;;;5144245;27;20469;-44
2023/01/01 11:01:29;;;;;;;13.15;2.30;;;11.90;99.90;;;;;;5143919;27;20513;-47
2023/01/01 11:04:02;;;;;;;14.40;2.40;;;11.90;99.90;;;;;;5145181;27;20070;-45
2023/01/01 11:06:42;;;;;;;15.55;2.45;;;12.00;99.90;;;;;;5124436;27;20043;-47
2023/01/01 11:09:24;;;;;;;13.52;2.50;;;12.00;99.90;;;;;;5144653;27;20457;-43
2023/01/01 11:11:59;;;;;;;12.30;2.38;;;12.00;99.90;;;;;;5144072;27;20508;-43
2023/01/01 11:14:33;;;;;;;9.65;2.15;;;12.00;99.90;;;;;;5142877;27;20087;-46
2023/01/01 11:16:58;;;;;;;12.73;2.45;;;11.90;99.90;;;;;;5144757;27;20082;-45
2023/01/01 11:19:27;;;;;;;14.80;2.47;;;11.90;99.90;;;;;;5126679;27;20446;-44
2023/01/01 11:21:52;;;;;;;13.50;2.30;;;11.90;99.90;;;;;;5143343;27;20034;-45
2023/01/01 11:24:22;;;;;;;15.35;2.70;;;11.90;99.90;;;;;;5145707;27;20627;-45
2023/01/01 11:26:48;;;;;;;20.23;2.75;;;12.00;99.90;;;;;;5129471;27;20047;-44
2023/01/01 11:29:21;;;;;;;15.30;3.05;;;12.10;99.90;;;;;;5147134;27;20042;-43
2023/01/01 11:31:47;;;;;;;14.45;2.78;;;12.50;99.90;;;;;;5127006;27;20063;-45
2023/01/01 11:34:26;;;;;;;11.05;2.30;;;12.80;99.90;;;;;;5128235;27;20546;-43
2023/01/01 11:36:52;;;;;;;11.23;2.00;;;12.80;99.90;;;;;;5107479;27;20405;-43
2023/01/01 11:39:27;;;;;;;20.95;3.08;;;12.60;99.90;;;;;;5129851;27;20035;-44
2023/01/01 11:41:55;;;;;;;14.30;3.17;;;12.50;99.90;;;;;;5147511;27;20073;-43
2023/01/01 11:44:44;;;;;;;12.88;2.58;;;12.30;99.90;;;;;;5147404;27;20049;-45
2023/01/01 11:47:30;;;;;;;11.23;1.85;;;12.30;99.90;;;;;;5148398;27;20046;-44
2023/01/01 11:50:13;;;;;;;13.27;1.83;;;12.20;99.90;;;;;;5147671;27;20149;-43
2023/01/01 11:52:48;;;;;;;16.00;2.78;;;12.20;99.90;;;;;;5147098;27;20053;-43
2023/01/01 11:55:41;;;;;;;12.95;2.17;;;12.20;99.90;;;;;;5146491;27;20041;-46
2023/01/01 11:58:31;;;;;;;14.15;2.33;;;12.20;99.90;;;;;;5147705;27;20041;-43
2023/01/01 12:01:02;;;;;;;14.02;2.45;;;12.40;99.90;;;;;;5147108;27;20459;-42
2023/01/01 12:03:35;;;;;;;15.63;2.35;;;12.50;99.90;;;;;;5148101;27;20046;-43
2023/01/01 12:06:08;;;;;;;6.70;1.27;;;12.60;99.80;;;;;;5147701;27;20413;-42
2023/01/01 12:08:43;;;;;;;14.10;2.97;;;12.70;99.60;;;;;;5147520;27;20378;-47
2023/01/01 12:11:16;;;;;;;19.90;2.90;;;12.80;99.90;;;;;;5147300;27;20080;-46
2023/01/01 12:13:54;;;;;;;15.82;2.47;;;12.70;99.90;;;;;;5146888;27;20038;-43
2023/01/01 12:16:30;;;;;;;10.73;2.30;;;12.70;99.80;;;;;;5147492;27;20051;-44
2023/01/01 12:19:03;;;;;;;17.90;2.35;;;12.70;99.90;;;;;;5147965;27;20159;-48
2023/01/01 12:21:31;;;;;;;13.60;2.30;;;12.60;99.90;;;;;;5146594;27;20026;-45
2023/01/01 12:23:57;;;;;;;13.10;3.13;;;12.60;99.90;;;;;;5146907;27;20068;-43
2023/01/01 12:26:44;;;;;;;20.98;3.58;;;12.50;99.90;;;;;;5146843;27;20513;-44
2023/01/01 12:29:38;;;;;;;20.70;2.88;;;12.50;99.90;;;;;;5147141;27;20565;-45
2023/01/01 12:32:13;;;;;;;20.15;3.17;;;12.40;99.90;;;;;;5126862;27;20057;-41
2023/01/01 12:35:12;;;;;;;13.30;1.80;;;12.40;99.90;;;;;;5126542;27;20514;-46
2023/01/01 12:37:59;;;;;;;19.63;2.70;;;12.40;99.90;;;;;;5125783;27;20130;-48
2023/01/01 12:40:28;;;;;;;26.08;5.18;;;12.40;99.90;;;;;;5136762;27;20033;-46
2023/01/01 12:43:00;;;;;;;14.88;2.10;;;12.50;99.90;;;;;;5146984;27;20151;-44
2023/01/01 12:45:42;;;;;;;18.52;2.90;;;12.50;99.90;;;;;;5117812;27;20417;-45
2023/01/01 12:48:39;;;;;;;13.40;3.95;;;12.50;99.90;;;;;;5147246;27;20034;-44
2023/01/01 12:51:29;;;;;;;18.92;2.30;;;12.50;99.90;;;;;;5147025;27;20051;-42
2023/01/01 12:54:06;;;;;;;14.60;2.25;;;12.40;99.90;;;;;;5146842;27;20079;-48
2023/01/01 12:56:48;;;;;;;14.70;2.58;;;12.50;99.90;;;;;;5146729;27;20038;-44
2023/01/01 12:59:18;;;;;;;12.07;1.80;;;12.50;99.90;;;;;;5146647;27;20035;-44
2023/01/01 13:01:45;;;;;;;13.57;2.00;;;12.60;99.90;;;;;;5126491;27;20035;-47
2023/01/01 13:04:17;;;;;;;13.15;2.97;;;12.50;99.90;;;;;;5126597;27;20330;-47